Terminal Aerodrome Forecast
Issued by NWS

Home | Current Version | Previous Version | Text Only | Print | Product List | Glossary On
Versions: 1 2 3 4 5 6 7 8 9 10 11 12 13 14
000
FTUS43 KIWX 211440 AAA
TAFSBN
TAF AMD
KSBN 211440Z 2115/2212 28013KT P6SM BKN025
     FM211600 29013G18KT P6SM BKN035
     FM220000 30008KT P6SM VCSH BKN050=

USA.gov is the U.S. government's official web portal to all federal, state and local government web resources and services.